sensor_id;sensor_type;location;lat;lon;timestamp;P1;durP1;ratioP1;P2;durP2;ratioP2
64252;SDS011;50592;52.958;-7.470;2022-09-14T00:01:11;8.20;;;2.10;;
64252;SDS011;50592;52.958;-7.470;2022-09-14T00:03:43;5.30;;;1.80;;
64252;SDS011;50592;52.958;-7.470;2022-09-14T00:06:10;14.98;;;2.38;;
64252;SDS011;50592;52.958;-7.470;2022-09-14T00:08:38;8.65;;;2.67;;
64252;SDS011;50592;52.958;-7.470;2022-09-14T00:11:06;5.55;;;2.70;;
64252;SDS011;50592;52.958;-7.470;2022-09-14T00:13:37;8.38;;;3.53;;
64252;SDS011;50592;52.958;-7.470;2022-09-14T00:16:06;3.42;;;2.08;;
64252;SDS011;50592;52.958;-7.470;2022-09-14T00:18:36;4.18;;;2.20;;
64252;SDS011;50592;52.958;-7.470;2022-09-14T00:21:03;4.40;;;2.25;;
64252;SDS011;50592;52.958;-7.470;2022-09-14T00:23:33;8.43;;;1.85;;
64252;SDS011;50592;52.958;-7.470;2022-09-14T00:26:04;6.45;;;2.67;;
64252;SDS011;50592;52.958;-7.470;2022-09-14T00:28:39;6.03;;;2.28;;
64252;SDS011;50592;52.958;-7.470;2022-09-14T00:31:09;11.52;;;2.90;;
64252;SDS011;50592;52.958;-7.470;2022-09-14T00:33:36;8.40;;;2.22;;
64252;SDS011;50592;52.958;-7.470;2022-09-14T00:36:10;8.23;;;2.50;;
64252;SDS011;50592;52.958;-7.470;2022-09-14T00:38:38;7.68;;;2.45;;
64252;SDS011;50592;52.958;-7.470;2022-09-14T00:41:09;13.68;;;2.63;;
64252;SDS011;50592;52.958;-7.470;2022-09-14T00:43:55;6.15;;;2.78;;
64252;SDS011;50592;52.958;-7.470;2022-09-14T00:46:22;9.23;;;3.05;;
64252;SDS011;50592;52.958;-7.470;2022-09-14T00:48:48;11.82;;;3.33;;
64252;SDS011;50592;52.958;-7.470;2022-09-14T00:51:15;10.43;;;4.50;;
64252;SDS011;50592;52.958;-7.470;2022-09-14T00:53:43;7.38;;;4.18;;
64252;SDS011;50592;52.958;-7.470;2022-09-14T00:56:10;11.93;;;4.25;;
64252;SDS011;50592;52.958;-7.470;2022-09-14T00:58:38;7.40;;;3.65;;
64252;SDS011;50592;52.958;-7.470;2022-09-14T01:01:09;9.98;;;4.00;;
64252;SDS011;50592;52.958;-7.470;2022-09-14T01:03:39;9.90;;;4.63;;
64252;SDS011;50592;52.958;-7.470;2022-09-14T01:09:22;12.35;;;4.28;;
64252;SDS011;50592;52.958;-7.470;2022-09-14T01:12:00;10.60;;;4.35;;
64252;SDS011;50592;52.958;-7.470;2022-09-14T01:14:43;7.53;;;3.90;;
64252;SDS011;50592;52.958;-7.470;2022-09-14T01:17:36;7.93;;;4.03;;
64252;SDS011;50592;52.958;-7.470;2022-09-14T01:20:19;7.93;;;4.47;;
64252;SDS011;50592;52.958;-7.470;2022-09-14T01:22:57;9.52;;;4.65;;
64252;SDS011;50592;52.958;-7.470;2022-09-14T01:28:07;11.90;;;5.30;;
64252;SDS011;50592;52.958;-7.470;2022-09-14T01:33:15;18.17;;;6.78;;
64252;SDS011;50592;52.958;-7.470;2022-09-14T01:35:54;12.80;;;6.13;;
64252;SDS011;50592;52.958;-7.470;2022-09-14T01:38:32;14.80;;;6.43;;
64252;SDS011;50592;52.958;-7.470;2022-09-14T01:41:05;10.73;;;5.93;;
64252;SDS011;50592;52.958;-7.470;2022-09-14T01:43:38;11.32;;;5.65;;
64252;SDS011;50592;52.958;-7.470;2022-09-14T01:46:21;15.75;;;4.68;;
64252;SDS011;50592;52.958;-7.470;2022-09-14T01:51:43;13.10;;;4.15;;
64252;SDS011;50592;52.958;-7.470;2022-09-14T01:54:15;8.50;;;3.60;;
64252;SDS011;50592;52.958;-7.470;2022-09-14T01:56:51;8.32;;;3.63;;
64252;SDS011;50592;52.958;-7.470;2022-09-14T01:59:22;14.02;;;3.63;;
64252;SDS011;50592;52.958;-7.470;2022-09-14T02:01:53;14.63;;;4.20;;
64252;SDS011;50592;52.958;-7.470;2022-09-14T02:04:30;12.60;;;3.95;;
64252;SDS011;50592;52.958;-7.470;2022-09-14T02:07:09;11.15;;;4.90;;
64252;SDS011;50592;52.958;-7.470;2022-09-14T02:09:35;11.52;;;4.97;;
64252;SDS011;50592;52.958;-7.470;2022-09-14T02:12:02;10.90;;;4.25;;
64252;SDS011;50592;52.958;-7.470;2022-09-14T02:14:29;8.55;;;3.45;;
64252;SDS011;50592;52.958;-7.470;2022-09-14T02:16:55;14.10;;;3.58;;
64252;SDS011;50592;52.958;-7.470;2022-09-14T02:19:22;9.95;;;3.67;;
64252;SDS011;50592;52.958;-7.470;2022-09-14T02:21:49;11.00;;;3.67;;
64252;SDS011;50592;52.958;-7.470;2022-09-14T02:24:15;8.93;;;3.22;;
64252;SDS011;50592;52.958;-7.470;2022-09-14T02:26:42;7.55;;;2.90;;
64252;SDS011;50592;52.958;-7.470;2022-09-14T02:29:08;9.30;;;3.25;;
64252;SDS011;50592;52.958;-7.470;2022-09-14T02:31:41;13.13;;;3.00;;
64252;SDS011;50592;52.958;-7.470;2022-09-14T02:42:13;9.52;;;3.00;;
64252;SDS011;50592;52.958;-7.470;2022-09-14T02:44:49;16.25;;;2.95;;
64252;SDS011;50592;52.958;-7.470;2022-09-14T02:47:28;11.65;;;3.05;;
64252;SDS011;50592;52.958;-7.470;2022-09-14T02:55:24;12.45;;;3.20;;
64252;SDS011;50592;52.958;-7.470;2022-09-14T03:00:32;13.25;;;3.63;;
64252;SDS011;50592;52.958;-7.470;2022-09-14T03:03:01;19.33;;;3.75;;
64252;SDS011;50592;52.958;-7.470;2022-09-14T03:05:31;7.68;;;3.22;;
64252;SDS011;50592;52.958;-7.470;2022-09-14T03:07:57;16.83;;;3.10;;
64252;SDS011;50592;52.958;-7.470;2022-09-14T03:10:24;16.88;;;3.28;;
64252;SDS011;50592;52.958;-7.470;2022-09-14T03:12:50;16.50;;;3.28;;
64252;SDS011;50592;52.958;-7.470;2022-09-14T03:15:16;11.75;;;3.28;;
64252;SDS011;50592;52.958;-7.470;2022-09-14T03:17:49;11.95;;;3.10;;
64252;SDS011;50592;52.958;-7.470;2022-09-14T03:20:19;9.05;;;2.50;;
64252;SDS011;50592;52.958;-7.470;2022-09-14T03:22:48;11.02;;;3.33;;
64252;SDS011;50592;52.958;-7.470;2022-09-14T03:25:14;10.88;;;3.25;;
64252;SDS011;50592;52.958;-7.470;2022-09-14T03:27:40;8.35;;;2.85;;
64252;SDS011;50592;52.958;-7.470;2022-09-14T03:30:06;12.40;;;3.25;;
64252;SDS011;50592;52.958;-7.470;2022-09-14T03:32:35;17.15;;;3.50;;
64252;SDS011;50592;52.958;-7.470;2022-09-14T03:35:01;13.88;;;3.13;;
64252;SDS011;50592;52.958;-7.470;2022-09-14T03:37:27;16.23;;;2.97;;
64252;SDS011;50592;52.958;-7.470;2022-09-14T03:39:53;14.27;;;3.22;;
64252;SDS011;50592;52.958;-7.470;2022-09-14T03:42:19;12.13;;;2.55;;
64252;SDS011;50592;52.958;-7.470;2022-09-14T03:44:45;16.02;;;2.13;;
64252;SDS011;50592;52.958;-7.470;2022-09-14T03:47:10;10.30;;;1.90;;
64252;SDS011;50592;52.958;-7.470;2022-09-14T03:49:36;17.55;;;2.03;;
64252;SDS011;50592;52.958;-7.470;2022-09-14T03:52:02;16.70;;;2.15;;
64252;SDS011;50592;52.958;-7.470;2022-09-14T03:54:28;13.68;;;2.30;;
64252;SDS011;50592;52.958;-7.470;2022-09-14T03:56:54;7.47;;;1.88;;
64252;SDS011;50592;52.958;-7.470;2022-09-14T03:59:20;14.57;;;2.28;;
64252;SDS011;50592;52.958;-7.470;2022-09-14T04:01:46;11.05;;;1.80;;
64252;SDS011;50592;52.958;-7.470;2022-09-14T04:04:12;11.05;;;1.88;;
64252;SDS011;50592;52.958;-7.470;2022-09-14T04:06:37;15.65;;;2.22;;
64252;SDS011;50592;52.958;-7.470;2022-09-14T04:09:03;10.55;;;2.58;;
64252;SDS011;50592;52.958;-7.470;2022-09-14T04:11:29;13.70;;;2.40;;
64252;SDS011;50592;52.958;-7.470;2022-09-14T04:13:59;11.32;;;2.30;;
64252;SDS011;50592;52.958;-7.470;2022-09-14T04:16:29;9.00;;;1.95;;
64252;SDS011;50592;52.958;-7.470;2022-09-14T04:18:54;18.48;;;1.90;;
64252;SDS011;50592;52.958;-7.470;2022-09-14T04:21:21;13.82;;;1.92;;
64252;SDS011;50592;52.958;-7.470;2022-09-14T04:23:53;13.32;;;2.45;;
64252;SDS011;50592;52.958;-7.470;2022-09-14T04:26:20;8.35;;;2.20;;
64252;SDS011;50592;52.958;-7.470;2022-09-14T04:28:48;12.63;;;3.22;;
64252;SDS011;50592;52.958;-7.470;2022-09-14T04:31:14;11.98;;;3.10;;
64252;SDS011;50592;52.958;-7.470;2022-09-14T04:33:40;10.95;;;2.97;;
64252;SDS011;50592;52.958;-7.470;2022-09-14T04:36:11;18.52;;;2.95;;
64252;SDS011;50592;52.958;-7.470;2022-09-14T04:38:38;8.82;;;2.33;;
64252;SDS011;50592;52.958;-7.470;2022-09-14T04:41:06;13.40;;;2.88;;
64252;SDS011;50592;52.958;-7.470;2022-09-14T04:43:34;11.98;;;2.42;;
64252;SDS011;50592;52.958;-7.470;2022-09-14T04:46:01;10.45;;;2.38;;
64252;SDS011;50592;52.958;-7.470;2022-09-14T04:48:41;11.40;;;2.45;;
64252;SDS011;50592;52.958;-7.470;2022-09-14T04:51:08;13.32;;;2.33;;
64252;SDS011;50592;52.958;-7.470;2022-09-14T04:53:41;12.85;;;2.65;;
64252;SDS011;50592;52.958;-7.470;2022-09-14T04:56:09;12.32;;;2.83;;
64252;SDS011;50592;52.958;-7.470;2022-09-14T04:58:38;11.27;;;2.30;;
64252;SDS011;50592;52.958;-7.470;2022-09-14T05:01:08;12.90;;;2.30;;
64252;SDS011;50592;52.958;-7.470;2022-09-14T05:03:35;9.27;;;2.55;;
64252;SDS011;50592;52.958;-7.470;2022-09-14T05:06:08;12.20;;;2.20;;
64252;SDS011;50592;52.958;-7.470;2022-09-14T05:08:36;7.35;;;1.90;;
64252;SDS011;50592;52.958;-7.470;2022-09-14T05:11:03;19.02;;;3.15;;
64252;SDS011;50592;52.958;-7.470;2022-09-14T05:13:33;14.50;;;2.97;;
64252;SDS011;50592;52.958;-7.470;2022-09-14T05:16:33;11.50;;;1.90;;
64252;SDS011;50592;52.958;-7.470;2022-09-14T05:19:00;7.32;;;2.45;;
64252;SDS011;50592;52.958;-7.470;2022-09-14T05:21:29;12.25;;;3.58;;
64252;SDS011;50592;52.958;-7.470;2022-09-14T05:23:57;11.65;;;2.60;;
64252;SDS011;50592;52.958;-7.470;2022-09-14T05:26:26;18.15;;;2.47;;
64252;SDS011;50592;52.958;-7.470;2022-09-14T05:28:54;9.88;;;2.00;;
64252;SDS011;50592;52.958;-7.470;2022-09-14T05:31:21;7.78;;;1.98;;
64252;SDS011;50592;52.958;-7.470;2022-09-14T05:33:48;11.45;;;2.45;;
64252;SDS011;50592;52.958;-7.470;2022-09-14T05:36:14;8.52;;;1.80;;
64252;SDS011;50592;52.958;-7.470;2022-09-14T05:38:40;8.80;;;1.85;;
64252;SDS011;50592;52.958;-7.470;2022-09-14T05:41:07;13.27;;;2.00;;
64252;SDS011;50592;52.958;-7.470;2022-09-14T05:43:36;16.77;;;2.17;;
64252;SDS011;50592;52.958;-7.470;2022-09-14T05:46:05;10.10;;;1.88;;
64252;SDS011;50592;52.958;-7.470;2022-09-14T05:48:34;8.38;;;2.15;;
64252;SDS011;50592;52.958;-7.470;2022-09-14T05:51:11;10.50;;;1.85;;
64252;SDS011;50592;52.958;-7.470;2022-09-14T05:53:42;8.13;;;1.95;;
64252;SDS011;50592;52.958;-7.470;2022-09-14T05:56:12;11.90;;;1.95;;
64252;SDS011;50592;52.958;-7.470;2022-09-14T05:58:39;6.82;;;1.63;;
64252;SDS011;50592;52.958;-7.470;2022-09-14T06:01:15;7.18;;;1.50;;
64252;SDS011;50592;52.958;-7.470;2022-09-14T06:03:44;10.57;;;2.17;;
64252;SDS011;50592;52.958;-7.470;2022-09-14T06:06:11;7.03;;;1.58;;
64252;SDS011;50592;52.958;-7.470;2022-09-14T06:08:38;4.88;;;1.42;;
64252;SDS011;50592;52.958;-7.470;2022-09-14T06:11:05;6.03;;;1.23;;
64252;SDS011;50592;52.958;-7.470;2022-09-14T06:13:34;3.22;;;1.10;;
64252;SDS011;50592;52.958;-7.470;2022-09-14T06:16:04;6.43;;;1.20;;
64252;SDS011;50592;52.958;-7.470;2022-09-14T06:18:41;2.95;;;1.15;;
64252;SDS011;50592;52.958;-7.470;2022-09-14T06:21:09;7.35;;;1.38;;
64252;SDS011;50592;52.958;-7.470;2022-09-14T06:23:36;5.50;;;2.30;;
64252;SDS011;50592;52.958;-7.470;2022-09-14T06:26:03;9.30;;;2.55;;
64252;SDS011;50592;52.958;-7.470;2022-09-14T06:28:30;4.28;;;1.63;;
64252;SDS011;50592;52.958;-7.470;2022-09-14T06:31:00;5.40;;;2.28;;
64252;SDS011;50592;52.958;-7.470;2022-09-14T06:33:29;7.97;;;2.45;;
64252;SDS011;50592;52.958;-7.470;2022-09-14T06:36:00;8.93;;;2.40;;
64252;SDS011;50592;52.958;-7.470;2022-09-14T06:38:34;4.85;;;2.42;;
64252;SDS011;50592;52.958;-7.470;2022-09-14T06:41:08;7.82;;;2.35;;
64252;SDS011;50592;52.958;-7.470;2022-09-14T06:43:41;4.80;;;2.55;;
64252;SDS011;50592;52.958;-7.470;2022-09-14T06:48:51;3.63;;;1.67;;
64252;SDS011;50592;52.958;-7.470;2022-09-14T06:51:47;2.83;;;1.65;;
64252;SDS011;50592;52.958;-7.470;2022-09-14T06:54:17;4.70;;;1.80;;
64252;SDS011;50592;52.958;-7.470;2022-09-14T06:56:44;3.22;;;1.33;;
64252;SDS011;50592;52.958;-7.470;2022-09-14T06:59:11;5.32;;;1.60;;
64252;SDS011;50592;52.958;-7.470;2022-09-14T07:01:42;2.15;;;1.10;;
64252;SDS011;50592;52.958;-7.470;2022-09-14T07:15:06;3.03;;;0.80;;
64252;SDS011;50592;52.958;-7.470;2022-09-14T07:18:03;4.43;;;0.98;;
64252;SDS011;50592;52.958;-7.470;2022-09-14T07:20:29;1.88;;;0.70;;
64252;SDS011;50592;52.958;-7.470;2022-09-14T07:22:55;1.50;;;0.85;;
64252;SDS011;50592;52.958;-7.470;2022-09-14T07:29:38;1.65;;;0.85;;
64252;SDS011;50592;52.958;-7.470;2022-09-14T07:32:19;1.48;;;0.75;;
64252;SDS011;50592;52.958;-7.470;2022-09-14T07:36:10;1.73;;;0.50;;
64252;SDS011;50592;52.958;-7.470;2022-09-14T07:38:37;2.63;;;0.60;;
64252;SDS011;50592;52.958;-7.470;2022-09-14T07:41:04;1.95;;;0.80;;
64252;SDS011;50592;52.958;-7.470;2022-09-14T07:43:30;1.85;;;0.63;;
64252;SDS011;50592;52.958;-7.470;2022-09-14T07:46:02;1.48;;;0.60;;
64252;SDS011;50592;52.958;-7.470;2022-09-14T07:48:29;2.67;;;0.80;;
64252;SDS011;50592;52.958;-7.470;2022-09-14T07:51:05;5.43;;;0.85;;
64252;SDS011;50592;52.958;-7.470;2022-09-14T07:53:36;1.95;;;0.65;;
64252;SDS011;50592;52.958;-7.470;2022-09-14T07:56:05;0.85;;;0.50;;
64252;SDS011;50592;52.958;-7.470;2022-09-14T07:58:35;1.33;;;0.40;;
64252;SDS011;50592;52.958;-7.470;2022-09-14T08:01:05;2.00;;;0.47;;
64252;SDS011;50592;52.958;-7.470;2022-09-14T08:03:32;3.08;;;0.40;;
64252;SDS011;50592;52.958;-7.470;2022-09-14T08:06:01;1.55;;;0.38;;
64252;SDS011;50592;52.958;-7.470;2022-09-14T08:08:31;2.42;;;0.50;;
64252;SDS011;50592;52.958;-7.470;2022-09-14T08:11:11;4.25;;;0.50;;
64252;SDS011;50592;52.958;-7.470;2022-09-14T08:13:40;3.60;;;0.30;;
64252;SDS011;50592;52.958;-7.470;2022-09-14T08:16:08;0.40;;;0.35;;
64252;SDS011;50592;52.958;-7.470;2022-09-14T08:18:34;0.60;;;0.30;;
64252;SDS011;50592;52.958;-7.470;2022-09-14T08:21:05;1.70;;;0.40;;
64252;SDS011;50592;52.958;-7.470;2022-09-14T08:23:33;0.75;;;0.35;;
64252;SDS011;50592;52.958;-7.470;2022-09-14T08:26:11;0.22;;;0.20;;
64252;SDS011;50592;52.958;-7.470;2022-09-14T08:28:39;1.15;;;0.30;;
64252;SDS011;50592;52.958;-7.470;2022-09-14T08:31:08;0.22;;;0.10;;
64252;SDS011;50592;52.958;-7.470;2022-09-14T08:33:49;0.98;;;0.30;;
64252;SDS011;50592;52.958;-7.470;2022-09-14T08:36:18;1.55;;;0.40;;
64252;SDS011;50592;52.958;-7.470;2022-09-14T08:38:45;0.80;;;0.52;;
64252;SDS011;50592;52.958;-7.470;2022-09-14T08:41:25;0.77;;;0.52;;
64252;SDS011;50592;52.958;-7.470;2022-09-14T08:52:43;0.13;;;0.13;;
64252;SDS011;50592;52.958;-7.470;2022-09-14T09:01:11;0.55;;;0.32;;
64252;SDS011;50592;52.958;-7.470;2022-09-14T09:06:14;0.63;;;0.40;;
64252;SDS011;50592;52.958;-7.470;2022-09-14T09:11:25;1.77;;;0.40;;
64252;SDS011;50592;52.958;-7.470;2022-09-14T09:14:01;0.38;;;0.25;;
64252;SDS011;50592;52.958;-7.470;2022-09-14T09:16:38;1.13;;;0.40;;
64252;SDS011;50592;52.958;-7.470;2022-09-14T09:19:05;0.88;;;0.30;;
64252;SDS011;50592;52.958;-7.470;2022-09-14T09:21:41;0.80;;;0.40;;
64252;SDS011;50592;52.958;-7.470;2022-09-14T09:24:33;0.95;;;0.25;;
64252;SDS011;50592;52.958;-7.470;2022-09-14T09:27:01;0.40;;;0.22;;
64252;SDS011;50592;52.958;-7.470;2022-09-14T09:29:32;1.63;;;0.20;;
64252;SDS011;50592;52.958;-7.470;2022-09-14T09:32:12;1.55;;;0.25;;
64252;SDS011;50592;52.958;-7.470;2022-09-14T09:34:59;0.85;;;0.20;;
64252;SDS011;50592;52.958;-7.470;2022-09-14T09:41:19;0.45;;;0.20;;
64252;SDS011;50592;52.958;-7.470;2022-09-14T09:44:06;0.43;;;0.20;;
64252;SDS011;50592;52.958;-7.470;2022-09-14T09:46:50;0.20;;;0.20;;
64252;SDS011;50592;52.958;-7.470;2022-09-14T09:49:29;1.98;;;0.10;;
64252;SDS011;50592;52.958;-7.470;2022-09-14T09:55:46;0.20;;;0.10;;
64252;SDS011;50592;52.958;-7.470;2022-09-14T10:04:04;0.50;;;0.10;;
64252;SDS011;50592;52.958;-7.470;2022-09-14T10:22:36;0.30;;;0.13;;
64252;SDS011;50592;52.958;-7.470;2022-09-14T10:25:25;0.25;;;0.10;;
64252;SDS011;50592;52.958;-7.470;2022-09-14T10:28:34;0.75;;;0.30;;
64252;SDS011;50592;52.958;-7.470;2022-09-14T10:31:00;1.00;;;0.30;;
64252;SDS011;50592;52.958;-7.470;2022-09-14T10:33:33;0.50;;;0.40;;
64252;SDS011;50592;52.958;-7.470;2022-09-14T10:38:33;0.70;;;0.63;;
64252;SDS011;50592;52.958;-7.470;2022-09-14T10:41:46;0.85;;;0.40;;
64252;SDS011;50592;52.958;-7.470;2022-09-14T10:53:18;0.32;;;0.30;;
64252;SDS011;50592;52.958;-7.470;2022-09-14T10:59:07;0.68;;;0.50;;
64252;SDS011;50592;52.958;-7.470;2022-09-14T11:22:35;1.00;;;0.60;;
64252;SDS011;50592;52.958;-7.470;2022-09-14T11:27:52;4.88;;;0.60;;
64252;SDS011;50592;52.958;-7.470;2022-09-14T11:34:05;2.03;;;0.43;;
64252;SDS011;50592;52.958;-7.470;2022-09-14T11:36:56;2.05;;;0.50;;
64252;SDS011;50592;52.958;-7.470;2022-09-14T11:42:44;0.47;;;0.45;;
64252;SDS011;50592;52.958;-7.470;2022-09-14T11:51:01;2.65;;;0.63;;
64252;SDS011;50592;52.958;-7.470;2022-09-14T11:53:50;2.85;;;0.57;;
64252;SDS011;50592;52.958;-7.470;2022-09-14T11:56:22;2.78;;;0.73;;
64252;SDS011;50592;52.958;-7.470;2022-09-14T11:58:52;4.40;;;0.73;;
64252;SDS011;50592;52.958;-7.470;2022-09-14T12:01:24;4.47;;;0.93;;
64252;SDS011;50592;52.958;-7.470;2022-09-14T12:04:11;6.18;;;1.15;;
64252;SDS011;50592;52.958;-7.470;2022-09-14T12:06:44;3.47;;;1.17;;
64252;SDS011;50592;52.958;-7.470;2022-09-14T12:09:51;7.75;;;2.67;;
64252;SDS011;50592;52.958;-7.470;2022-09-14T12:12:36;7.88;;;1.48;;
64252;SDS011;50592;52.958;-7.470;2022-09-14T12:15:03;7.65;;;1.60;;
64252;SDS011;50592;52.958;-7.470;2022-09-14T13:06:02;15.18;;;3.47;;
64252;SDS011;50592;52.958;-7.470;2022-09-14T13:19:54;9.80;;;2.75;;
64252;SDS011;50592;52.958;-7.470;2022-09-14T13:22:23;9.90;;;2.47;;
64252;SDS011;50592;52.958;-7.470;2022-09-14T13:25:02;7.03;;;2.15;;
64252;SDS011;50592;52.958;-7.470;2022-09-14T13:27:40;9.60;;;2.35;;
64252;SDS011;50592;52.958;-7.470;2022-09-14T13:30:27;15.32;;;2.78;;
64252;SDS011;50592;52.958;-7.470;2022-09-14T13:32:54;10.30;;;2.22;;
64252;SDS011;50592;52.958;-7.470;2022-09-14T13:35:35;14.73;;;3.33;;
64252;SDS011;50592;52.958;-7.470;2022-09-14T13:38:14;17.23;;;2.95;;
64252;SDS011;50592;52.958;-7.470;2022-09-14T13:40:48;10.57;;;2.28;;
64252;SDS011;50592;52.958;-7.470;2022-09-14T13:43:17;12.30;;;2.70;;
64252;SDS011;50592;52.958;-7.470;2022-09-14T13:45:45;14.02;;;2.45;;
64252;SDS011;50592;52.958;-7.470;2022-09-14T13:48:13;14.27;;;2.75;;
64252;SDS011;50592;52.958;-7.470;2022-09-14T13:50:41;12.25;;;2.38;;
64252;SDS011;50592;52.958;-7.470;2022-09-14T14:01:36;10.35;;;2.40;;
64252;SDS011;50592;52.958;-7.470;2022-09-14T14:04:31;11.52;;;2.85;;
64252;SDS011;50592;52.958;-7.470;2022-09-14T14:17:51;12.60;;;2.22;;
64252;SDS011;50592;52.958;-7.470;2022-09-14T14:25:42;13.70;;;2.75;;
64252;SDS011;50592;52.958;-7.470;2022-09-14T14:28:22;7.43;;;2.40;;
64252;SDS011;50592;52.958;-7.470;2022-09-14T14:30:57;19.67;;;3.22;;
64252;SDS011;50592;52.958;-7.470;2022-09-14T14:33:27;10.90;;;2.25;;
64252;SDS011;50592;52.958;-7.470;2022-09-14T14:35:56;10.50;;;2.25;;
64252;SDS011;50592;52.958;-7.470;2022-09-14T14:38:22;14.18;;;2.40;;
64252;SDS011;50592;52.958;-7.470;2022-09-14T14:40:52;12.43;;;2.42;;
64252;SDS011;50592;52.958;-7.470;2022-09-14T14:43:23;9.95;;;2.42;;
64252;SDS011;50592;52.958;-7.470;2022-09-14T14:46:08;10.90;;;2.60;;
64252;SDS011;50592;52.958;-7.470;2022-09-14T14:48:35;14.68;;;2.65;;
64252;SDS011;50592;52.958;-7.470;2022-09-14T14:51:04;13.23;;;2.60;;
64252;SDS011;50592;52.958;-7.470;2022-09-14T14:53:42;10.02;;;2.08;;
64252;SDS011;50592;52.958;-7.470;2022-09-14T14:56:23;11.50;;;3.05;;
64252;SDS011;50592;52.958;-7.470;2022-09-14T14:58:52;8.48;;;2.17;;
64252;SDS011;50592;52.958;-7.470;2022-09-14T15:04:13;14.38;;;2.67;;
64252;SDS011;50592;52.958;-7.470;2022-09-14T15:06:39;8.98;;;1.90;;
64252;SDS011;50592;52.958;-7.470;2022-09-14T15:13:09;9.73;;;2.05;;
64252;SDS011;50592;52.958;-7.470;2022-09-14T15:15:37;13.38;;;2.22;;
64252;SDS011;50592;52.958;-7.470;2022-09-14T15:18:07;12.40;;;1.90;;
64252;SDS011;50592;52.958;-7.470;2022-09-14T15:20:36;8.77;;;1.85;;
64252;SDS011;50592;52.958;-7.470;2022-09-14T15:23:02;11.15;;;3.05;;
64252;SDS011;50592;52.958;-7.470;2022-09-14T15:25:55;8.75;;;2.15;;
64252;SDS011;50592;52.958;-7.470;2022-09-14T15:28:26;11.25;;;2.58;;
64252;SDS011;50592;52.958;-7.470;2022-09-14T15:30:55;11.80;;;2.53;;
64252;SDS011;50592;52.958;-7.470;2022-09-14T15:33:40;5.78;;;1.30;;
64252;SDS011;50592;52.958;-7.470;2022-09-14T15:36:06;13.45;;;2.08;;
64252;SDS011;50592;52.958;-7.470;2022-09-14T15:38:32;10.32;;;1.98;;
64252;SDS011;50592;52.958;-7.470;2022-09-14T15:40:58;7.93;;;1.85;;
64252;SDS011;50592;52.958;-7.470;2022-09-14T15:43:24;7.63;;;1.83;;
64252;SDS011;50592;52.958;-7.470;2022-09-14T15:45:52;12.55;;;2.65;;
64252;SDS011;50592;52.958;-7.470;2022-09-14T15:48:19;12.18;;;1.60;;
64252;SDS011;50592;52.958;-7.470;2022-09-14T15:50:46;10.98;;;1.83;;
64252;SDS011;50592;52.958;-7.470;2022-09-14T15:53:13;12.43;;;1.85;;
64252;SDS011;50592;52.958;-7.470;2022-09-14T15:55:41;10.20;;;1.73;;
64252;SDS011;50592;52.958;-7.470;2022-09-14T15:58:08;7.07;;;1.75;;
64252;SDS011;50592;52.958;-7.470;2022-09-14T16:00:35;11.93;;;1.80;;
64252;SDS011;50592;52.958;-7.470;2022-09-14T16:03:02;7.78;;;1.80;;
64252;SDS011;50592;52.958;-7.470;2022-09-14T16:05:29;6.38;;;1.50;;
64252;SDS011;50592;52.958;-7.470;2022-09-14T16:07:55;9.80;;;1.55;;
64252;SDS011;50592;52.958;-7.470;2022-09-14T16:10:22;6.57;;;1.38;;
64252;SDS011;50592;52.958;-7.470;2022-09-14T16:12:53;7.57;;;1.15;;
64252;SDS011;50592;52.958;-7.470;2022-09-14T16:15:19;10.48;;;1.70;;
64252;SDS011;50592;52.958;-7.470;2022-09-14T16:17:51;8.68;;;1.50;;
64252;SDS011;50592;52.958;-7.470;2022-09-14T16:20:18;6.07;;;1.27;;
64252;SDS011;50592;52.958;-7.470;2022-09-14T16:22:46;9.85;;;1.83;;
64252;SDS011;50592;52.958;-7.470;2022-09-14T16:25:13;11.88;;;1.98;;
64252;SDS011;50592;52.958;-7.470;2022-09-14T16:27:40;5.53;;;1.17;;
64252;SDS011;50592;52.958;-7.470;2022-09-14T16:30:07;6.50;;;1.35;;
64252;SDS011;50592;52.958;-7.470;2022-09-14T16:32:34;10.48;;;1.85;;
64252;SDS011;50592;52.958;-7.470;2022-09-14T16:35:01;10.02;;;2.95;;
64252;SDS011;50592;52.958;-7.470;2022-09-14T16:37:29;9.55;;;2.08;;
64252;SDS011;50592;52.958;-7.470;2022-09-14T16:39:55;6.75;;;1.20;;
64252;SDS011;50592;52.958;-7.470;2022-09-14T16:42:21;8.48;;;1.38;;
64252;SDS011;50592;52.958;-7.470;2022-09-14T16:44:47;9.48;;;2.22;;
64252;SDS011;50592;52.958;-7.470;2022-09-14T16:47:13;7.90;;;1.30;;
64252;SDS011;50592;52.958;-7.470;2022-09-14T16:49:42;8.65;;;1.65;;
64252;SDS011;50592;52.958;-7.470;2022-09-14T16:52:08;6.90;;;1.90;;
64252;SDS011;50592;52.958;-7.470;2022-09-14T16:54:34;7.93;;;1.70;;
64252;SDS011;50592;52.958;-7.470;2022-09-14T16:57:00;5.10;;;1.70;;
64252;SDS011;50592;52.958;-7.470;2022-09-14T16:59:28;7.30;;;1.80;;
64252;SDS011;50592;52.958;-7.470;2022-09-14T17:01:54;7.63;;;1.30;;
64252;SDS011;50592;52.958;-7.470;2022-09-14T17:04:20;5.32;;;1.27;;
64252;SDS011;50592;52.958;-7.470;2022-09-14T17:06:47;7.65;;;1.20;;
64252;SDS011;50592;52.958;-7.470;2022-09-14T17:09:27;9.10;;;1.42;;
64252;SDS011;50592;52.958;-7.470;2022-09-14T17:11:57;8.20;;;1.58;;
64252;SDS011;50592;52.958;-7.470;2022-09-14T17:14:27;5.30;;;1.45;;
64252;SDS011;50592;52.958;-7.470;2022-09-14T17:16:57;6.85;;;1.50;;
64252;SDS011;50592;52.958;-7.470;2022-09-14T17:19:24;9.20;;;1.20;;
64252;SDS011;50592;52.958;-7.470;2022-09-14T17:21:51;4.40;;;1.27;;
64252;SDS011;50592;52.958;-7.470;2022-09-14T17:24:18;6.78;;;1.52;;
64252;SDS011;50592;52.958;-7.470;2022-09-14T17:26:45;3.50;;;1.02;;
64252;SDS011;50592;52.958;-7.470;2022-09-14T17:29:12;6.40;;;1.35;;
64252;SDS011;50592;52.958;-7.470;2022-09-14T17:31:42;5.60;;;1.50;;
64252;SDS011;50592;52.958;-7.470;2022-09-14T17:34:23;3.72;;;1.20;;
64252;SDS011;50592;52.958;-7.470;2022-09-14T17:37:16;5.35;;;1.23;;
64252;SDS011;50592;52.958;-7.470;2022-09-14T17:39:42;4.75;;;1.90;;
64252;SDS011;50592;52.958;-7.470;2022-09-14T17:42:08;4.18;;;1.10;;
64252;SDS011;50592;52.958;-7.470;2022-09-14T17:44:34;6.20;;;1.20;;
64252;SDS011;50592;52.958;-7.470;2022-09-14T17:47:10;6.40;;;1.70;;
64252;SDS011;50592;52.958;-7.470;2022-09-14T17:49:44;6.32;;;1.20;;
64252;SDS011;50592;52.958;-7.470;2022-09-14T17:52:18;6.15;;;1.80;;
64252;SDS011;50592;52.958;-7.470;2022-09-14T17:54:44;5.43;;;1.80;;
64252;SDS011;50592;52.958;-7.470;2022-09-14T17:57:12;4.90;;;1.25;;
64252;SDS011;50592;52.958;-7.470;2022-09-14T17:59:38;6.10;;;1.10;;
64252;SDS011;50592;52.958;-7.470;2022-09-14T18:02:11;4.35;;;1.48;;
64252;SDS011;50592;52.958;-7.470;2022-09-14T18:04:48;7.13;;;1.15;;
64252;SDS011;50592;52.958;-7.470;2022-09-14T18:07:15;7.68;;;1.70;;
64252;SDS011;50592;52.958;-7.470;2022-09-14T18:09:41;5.50;;;1.30;;
64252;SDS011;50592;52.958;-7.470;2022-09-14T18:12:07;4.45;;;1.10;;
64252;SDS011;50592;52.958;-7.470;2022-09-14T18:14:34;6.90;;;1.85;;
64252;SDS011;50592;52.958;-7.470;2022-09-14T18:17:01;7.82;;;2.20;;
64252;SDS011;50592;52.958;-7.470;2022-09-14T18:19:30;4.25;;;1.52;;
64252;SDS011;50592;52.958;-7.470;2022-09-14T18:21:56;6.72;;;3.35;;
64252;SDS011;50592;52.958;-7.470;2022-09-14T18:24:25;9.88;;;4.40;;
64252;SDS011;50592;52.958;-7.470;2022-09-14T18:26:51;9.50;;;3.90;;
64252;SDS011;50592;52.958;-7.470;2022-09-14T18:29:18;6.15;;;2.03;;
64252;SDS011;50592;52.958;-7.470;2022-09-14T18:31:45;9.23;;;4.20;;
64252;SDS011;50592;52.958;-7.470;2022-09-14T18:34:12;8.20;;;3.35;;
64252;SDS011;50592;52.958;-7.470;2022-09-14T18:36:38;11.00;;;3.53;;
64252;SDS011;50592;52.958;-7.470;2022-09-14T18:39:04;6.72;;;2.58;;
64252;SDS011;50592;52.958;-7.470;2022-09-14T18:41:30;7.30;;;3.83;;
64252;SDS011;50592;52.958;-7.470;2022-09-14T18:43:58;7.55;;;3.75;;
64252;SDS011;50592;52.958;-7.470;2022-09-14T18:46:26;5.03;;;2.00;;
64252;SDS011;50592;52.958;-7.470;2022-09-14T18:48:52;6.40;;;1.80;;
64252;SDS011;50592;52.958;-7.470;2022-09-14T18:51:19;6.40;;;2.80;;